Аэропорт: Внуково. Москва

ICAO: UUWW

METAR:
2024-05-18 17:00:00
UUWW 181700Z 08004MPS CAVOK 17/04 Q1018 R06/000070 NOSIG
TAF:
2024-05-18 16:53:00
TAF UUWW 181653Z 1818/1918 09003MPS CAVOK TX20/1912Z TN08/1902Z 
  BECMG 1909/1912 16005MPS